createdAt,value
2022-08-07T00:02:36.593Z,101254.44
2022-08-07T00:05:05.738Z,101253.66
2022-08-07T00:07:40.317Z,101257.25
2022-08-07T00:10:27.162Z,101264.09
2022-08-07T00:13:00.636Z,101263.31
2022-08-07T00:15:38.002Z,101260.63
2022-08-07T00:18:19.874Z,101257.94
2022-08-07T00:20:49.793Z,101259.56
2022-08-07T00:23:17.729Z,101257.16
2022-08-07T00:25:51.818Z,101263.91
2022-08-07T00:28:33.790Z,101262.28
2022-08-07T00:31:05.761Z,101242.16
2022-08-07T00:33:35.962Z,101251.97
2022-08-07T00:36:04.732Z,101244.63
2022-08-07T00:38:33.307Z,101247.84
2022-08-07T00:41:01.794Z,101246.50
2022-08-07T00:44:01.496Z,101255.19
2022-08-07T00:46:17.017Z,101259.53
2022-08-07T00:48:45.330Z,101256.00
2022-08-07T00:51:17.598Z,101252.19
2022-08-07T00:53:50.852Z,101249.75
2022-08-07T00:56:30.147Z,101251.94
2022-08-07T00:58:59.275Z,101240.53
2022-08-07T01:01:26.900Z,101253.31
2022-08-07T01:04:00.335Z,101254.69
2022-08-07T01:06:30.022Z,101251.97
2022-08-07T01:09:00.720Z,101243.25
2022-08-07T01:12:23.278Z,101247.59
2022-08-07T01:14:21.115Z,101243.00
2022-08-07T01:16:56.091Z,101247.59
2022-08-07T01:19:25.449Z,101256.56
2022-08-07T01:21:55.657Z,101260.13
2022-08-07T01:24:32.139Z,101258.47
2022-08-07T01:27:01.598Z,101259.56
2022-08-07T01:29:31.499Z,101253.88
2022-08-07T01:32:05.327Z,101267.72
2022-08-07T01:34:35.377Z,101266.91
2022-08-07T01:37:09.815Z,101262.84
2022-08-07T01:39:46.424Z,101269.94
2022-08-07T01:42:57.293Z,101266.66
2022-08-07T01:45:36.847Z,101260.72
2022-08-07T01:48:18.601Z,101267.22
2022-08-07T01:51:24.044Z,101268.56
2022-08-07T01:54:09.385Z,101259.59
2022-08-07T01:56:55.338Z,101270.22
2022-08-07T01:59:30.908Z,101262.34
2022-08-07T02:02:12.036Z,101269.41
2022-08-07T02:05:47.497Z,101268.84
2022-08-07T02:08:19.686Z,101274.03
2022-08-07T02:10:57.998Z,101272.94
2022-08-07T02:13:58.168Z,101262.59
2022-08-07T02:16:33.201Z,101276.19
2022-08-07T02:20:07.444Z,101279.47
2022-08-07T02:21:58.875Z,101280.78
2022-08-07T02:24:30.213Z,101277.56
2022-08-07T02:27:05.100Z,101284.06
2022-08-07T02:29:36.853Z,101275.09
2022-08-07T02:32:19.342Z,101292.50
2022-08-07T02:34:53.014Z,101291.13
2022-08-07T02:37:27.109Z,101284.06
2022-08-07T02:40:11.881Z,101289.41
2022-08-07T02:42:46.888Z,101276.78
2022-08-07T02:45:57.707Z,101291.75
2022-08-07T02:48:10.356Z,101284.50
2022-08-07T02:50:48.995Z,101288.81
2022-08-07T02:53:27.638Z,101280.03
2022-08-07T02:56:04.395Z,101285.19
2022-08-07T02:58:39.869Z,101292.03
2022-08-07T03:01:19.108Z,101275.47
2022-08-07T03:04:12.584Z,101279.19
2022-08-07T03:06:44.662Z,101291.66
2022-08-07T03:09:41.783Z,101288.44
2022-08-07T03:12:08.126Z,101290.31
2022-08-07T03:14:52.182Z,101285.03
2022-08-07T03:17:22.134Z,101294.66
2022-08-07T03:19:54.699Z,101287.44
2022-08-07T03:22:30.411Z,101282.63
2022-08-07T03:25:01.771Z,101285.06
2022-08-07T03:27:58.745Z,101281.00
2022-08-07T03:30:27.721Z,101287.41
2022-08-07T03:32:59.362Z,101286.03
2022-08-07T03:35:44.057Z,101280.84
2022-08-07T03:38:20.929Z,101291.22
2022-08-07T03:40:57.476Z,101298.88
2022-08-07T03:43:32.246Z,101282.75
2022-08-07T03:46:04.106Z,101292.84
2022-08-07T03:48:45.390Z,101286.72
2022-08-07T03:51:30.698Z,101301.84
2022-08-07T03:54:33.261Z,101300.13
2022-08-07T03:57:03.379Z,101309.56
2022-08-07T03:59:35.547Z,101296.09
2022-08-07T04:02:03.726Z,101295.81
2022-08-07T04:04:32.750Z,101305.16
2022-08-07T04:07:16.669Z,101299.84
2022-08-07T04:09:50.533Z,101303.53
2022-08-07T04:12:27.576Z,101299.94
2022-08-07T04:15:00.234Z,101316.59
2022-08-07T04:18:30.921Z,101305.56
2022-08-07T04:20:21.624Z,101314.31
2022-08-07T04:22:53.390Z,101303.50
2022-08-07T04:25:24.202Z,101299.84
2022-08-07T04:28:00.318Z,101290.25
2022-08-07T04:30:39.386Z,101297.56
2022-08-07T04:33:20.030Z,101301.34
2022-08-07T04:35:53.265Z,101305.56
2022-08-07T04:38:26.922Z,101295.69
2022-08-07T04:40:56.786Z,101301.97
2022-08-07T04:44:10.687Z,101300.72
2022-08-07T04:47:04.575Z,101301.69
2022-08-07T04:50:03.457Z,101304.84
2022-08-07T04:52:52.470Z,101307.25
2022-08-07T04:58:10.150Z,101303.31
2022-08-07T04:59:18.449Z,101306.50
2022-08-07T05:01:47.246Z,101301.50
2022-08-07T05:04:47.351Z,101303.88
2022-08-07T05:07:30.506Z,101295.94
2022-08-07T05:10:11.791Z,101301.50
2022-08-07T05:12:56.094Z,101297.44
2022-08-07T05:15:36.367Z,101299.69
2022-08-07T05:18:10.372Z,101300.03
2022-08-07T05:20:45.404Z,101302.66
2022-08-07T05:23:19.653Z,101307.97
2022-08-07T05:26:13.242Z,101297.25
2022-08-07T05:28:48.647Z,101302.91
2022-08-07T05:31:23.453Z,101308.03
2022-08-07T05:34:04.585Z,101303.88
2022-08-07T05:36:39.215Z,101308.81
2022-08-07T05:40:14.320Z,101308.09
2022-08-07T05:42:08.901Z,101315.81
2022-08-07T05:44:52.799Z,101312.31
2022-08-07T05:47:38.553Z,101311.78
2022-08-07T05:50:21.559Z,101303.16
2022-08-07T05:52:50.229Z,101307.56
2022-08-07T05:55:18.028Z,101302.88
2022-08-07T05:57:47.985Z,101308.09
2022-08-07T06:00:18.191Z,101312.09
2022-08-07T06:03:02.152Z,101309.66
2022-08-07T06:05:32.478Z,101310.41
2022-08-07T06:08:13.319Z,101311.97
2022-08-07T06:10:54.870Z,101307.97
2022-08-07T06:14:10.311Z,101302.47
2022-08-07T06:16:15.360Z,101295.69
2022-08-07T06:18:55.518Z,101299.25
2022-08-07T06:22:16.649Z,101292.28
2022-08-07T06:24:48.210Z,101297.22
2022-08-07T06:27:03.749Z,101293.97
2022-08-07T06:29:38.800Z,101294.38
2022-08-07T06:32:08.489Z,101299.53
2022-08-07T06:34:36.035Z,101291.75
2022-08-07T06:37:09.020Z,101300.53
2022-08-07T06:40:15.906Z,101292.56
2022-08-07T06:42:36.916Z,101283.63
2022-08-07T06:45:37.243Z,101278.94
2022-08-07T06:48:06.920Z,101271.53
2022-08-07T06:50:47.776Z,101269.53
2022-08-07T06:54:12.198Z,101269.75
2022-08-07T06:56:15.075Z,101276.44
2022-08-07T07:00:13.921Z,101267.25
2022-08-07T07:01:48.901Z,101263.38
2022-08-07T07:04:28.488Z,101261.69
2022-08-07T07:07:10.460Z,101261.19
2022-08-07T07:09:48.970Z,101246.06
2022-08-07T07:12:33.631Z,101244.25
2022-08-07T07:15:08.589Z,101248.69
2022-08-07T07:18:02.163Z,101248.53
2022-08-07T07:21:13.306Z,101240.38
2022-08-07T07:24:08.949Z,101239.06
2022-08-07T07:26:37.237Z,101242.41
2022-08-07T07:29:55.815Z,101245.97
2022-08-07T07:32:11.888Z,101248.28
2022-08-07T07:34:50.004Z,101237.34
2022-08-07T07:37:45.377Z,101248.91
2022-08-07T07:40:10.242Z,101242.97
2022-08-07T07:42:53.825Z,101242.75
2022-08-07T07:46:38.104Z,101242.72
2022-08-07T07:48:35.324Z,101247.69
2022-08-07T07:51:07.573Z,101238.03
2022-08-07T07:53:52.060Z,101247.69
2022-08-07T07:56:30.285Z,101241.72
2022-08-07T07:59:06.213Z,101247.03
2022-08-07T08:02:02.170Z,101244.97
2022-08-07T08:04:25.891Z,101240.84
2022-08-07T08:06:54.564Z,101243.09
2022-08-07T08:09:29.480Z,101249.75
2022-08-07T08:12:02.003Z,101240.59
2022-08-07T08:14:34.147Z,101231.53
2022-08-07T08:17:55.599Z,101232.25
2022-08-07T08:20:17.081Z,101232.84
2022-08-07T08:23:09.382Z,101242.09
2022-08-07T08:26:03.369Z,101234.28
2022-08-07T08:28:39.171Z,101226.41
2022-08-07T08:31:16.326Z,101233.72
2022-08-07T08:33:55.824Z,101243.97
2022-08-07T08:36:30.322Z,101251.06
2022-08-07T08:39:01.925Z,101252.59
2022-08-07T08:41:57.170Z,101243.91
2022-08-07T08:45:05.938Z,101240.88
2022-08-07T08:47:52.512Z,101234.16
2022-08-07T08:50:39.280Z,101232.84
2022-08-07T08:53:29.283Z,101231.28
2022-08-07T08:56:10.936Z,101228.56
2022-08-07T08:59:13.741Z,101229.31
2022-08-07T09:01:49.178Z,101225.84
2022-08-07T09:04:30.344Z,101222.41
2022-08-07T09:07:11.559Z,101219.06
2022-08-07T09:10:06.588Z,101227.66
2022-08-07T09:13:02.388Z,101228.09
2022-08-07T09:16:22.936Z,101221.94
2022-08-07T09:19:52.095Z,101218.72
2022-08-07T09:22:37.050Z,101213.97
2022-08-07T09:25:07.003Z,101230.44
2022-08-07T09:28:04.297Z,101220.75
2022-08-07T09:31:08.520Z,101223.16
2022-08-07T09:33:57.866Z,101217.41
2022-08-07T09:36:35.661Z,101220.72
2022-08-07T09:39:54.663Z,101210.19
2022-08-07T09:42:41.132Z,101225.72
2022-08-07T09:47:23.828Z,101218.03
2022-08-07T09:48:08.802Z,101209.75
2022-08-07T09:52:09.240Z,101214.63
2022-08-07T09:54:07.112Z,101197.47
2022-08-07T09:56:53.977Z,101198.59
2022-08-07T09:59:21.960Z,101199.38
2022-08-07T10:02:19.131Z,101196.72
2022-08-07T10:05:16.285Z,101197.19
2022-08-07T10:08:04.670Z,101210.00
2022-08-07T10:12:00.483Z,101197.28
2022-08-07T10:14:11.107Z,101191.78
2022-08-07T10:17:14.496Z,101195.38
2022-08-07T10:19:49.491Z,101194.06
2022-08-07T10:22:51.174Z,101199.81
2022-08-07T10:25:44.539Z,101196.13
2022-08-07T10:28:36.579Z,101193.88
2022-08-07T10:31:39.061Z,101200.09
2022-08-07T10:34:27.035Z,101199.78
2022-08-07T10:37:48.702Z,101206.94
2022-08-07T10:40:30.593Z,101198.78
2022-08-07T10:43:02.695Z,101197.00
2022-08-07T10:45:57.081Z,101190.97
2022-08-07T10:48:51.531Z,101190.63
2022-08-07T10:51:39.303Z,101187.59
2022-08-07T10:54:15.640Z,101187.16
2022-08-07T10:57:22.104Z,101176.66
2022-08-07T11:00:39.240Z,101156.94
2022-08-07T11:03:15.129Z,101152.75
2022-08-07T11:05:50.880Z,101160.72
2022-08-07T11:08:46.026Z,101172.25
2022-08-07T11:11:24.780Z,101174.84
2022-08-07T11:14:45.970Z,101173.88
2022-08-07T11:17:13.525Z,101173.19
2022-08-07T11:20:03.356Z,101169.53
2022-08-07T11:22:45.639Z,101171.34
2022-08-07T11:25:23.890Z,101159.72
2022-08-07T11:28:15.621Z,101140.94
2022-08-07T11:30:50.937Z,101158.44
2022-08-07T11:33:59.096Z,101153.72
2022-08-07T11:36:25.386Z,101149.16
2022-08-07T11:39:39.668Z,101155.81
2022-08-07T11:42:37.493Z,101135.56
2022-08-07T11:45:35.898Z,101147.56
2022-08-07T11:48:18.024Z,101138.03
2022-08-07T11:51:41.222Z,101129.03
2022-08-07T11:54:55.041Z,101137.81
2022-08-07T11:57:59.757Z,101132.81
2022-08-07T12:01:05.113Z,101126.41
2022-08-07T12:03:46.097Z,101122.88
2022-08-07T12:06:55.359Z,101122.25
2022-08-07T12:09:48.990Z,101117.22
2022-08-07T12:12:25.515Z,101122.38
2022-08-07T12:15:01.366Z,101116.13
2022-08-07T12:17:59.739Z,101113.56
2022-08-07T12:20:46.347Z,101105.88
2022-08-07T12:24:06.105Z,101105.59
2022-08-07T12:26:46.849Z,101117.47
2022-08-07T12:29:38.376Z,101114.22
2022-08-07T12:32:21.196Z,101106.19
2022-08-07T12:34:55.597Z,101108.50
2022-08-07T12:37:28.304Z,101091.69
2022-08-07T12:40:44.896Z,101120.13
2022-08-07T12:43:09.675Z,101109.44
2022-08-07T12:45:56.973Z,101108.53
2022-08-07T12:48:53.153Z,101106.41
2022-08-07T12:51:33.450Z,101113.63
2022-08-07T12:54:41.309Z,101104.59
2022-08-07T12:57:11.281Z,101110.78
2022-08-07T12:59:54.213Z,101109.06
2022-08-07T13:02:49.468Z,101107.47
2022-08-07T13:06:03.000Z,101107.84
2022-08-07T13:08:43.330Z,101105.97
2022-08-07T13:12:01.853Z,101098.72
2022-08-07T13:14:55.389Z,101097.75
2022-08-07T13:17:42.483Z,101107.97
2022-08-07T13:20:21.811Z,101109.59
2022-08-07T13:24:00.158Z,101105.28
2022-08-07T13:26:18.398Z,101107.88
2022-08-07T13:29:09.937Z,101108.06
2022-08-07T13:31:57.604Z,101101.16
2022-08-07T13:34:36.257Z,101104.97
2022-08-07T13:37:22.322Z,101111.25
2022-08-07T13:40:35.034Z,101104.09
2022-08-07T13:42:53.414Z,101099.06
2022-08-07T13:46:10.906Z,101094.72
2022-08-07T13:48:27.911Z,101100.09
2022-08-07T13:51:20.423Z,101098.66
2022-08-07T13:54:00.181Z,101108.69
2022-08-07T13:56:35.815Z,101110.28
2022-08-07T13:59:27.263Z,101113.50
2022-08-07T14:02:04.780Z,101108.78
2022-08-07T14:04:47.417Z,101100.97
2022-08-07T14:07:23.074Z,101101.41
2022-08-07T14:10:02.488Z,101106.09
2022-08-07T14:12:49.480Z,101104.63
2022-08-07T14:15:42.586Z,101110.22
2022-08-07T14:18:30.752Z,101106.41
2022-08-07T14:21:20.651Z,101104.63
2022-08-07T14:24:01.947Z,101091.88
2022-08-07T14:26:37.570Z,101120.47
2022-08-07T14:30:07.112Z,101129.53
2022-08-07T14:32:03.644Z,101117.13
2022-08-07T14:34:33.718Z,101120.91
2022-08-07T14:37:03.726Z,101124.69
2022-08-07T14:40:14.834Z,101124.09
2022-08-07T14:45:21.917Z,101114.22
2022-08-07T14:48:07.762Z,101118.50
2022-08-07T14:50:42.454Z,101125.13
2022-08-07T14:53:11.422Z,101121.47
2022-08-07T14:58:35.902Z,101124.06
2022-08-07T15:03:53.696Z,101122.28
2022-08-07T15:06:26.206Z,101120.94
2022-08-07T15:08:55.742Z,101123.91
2022-08-07T15:11:53.482Z,101128.94
2022-08-07T15:14:22.917Z,101119.91
2022-08-07T15:17:11.716Z,101128.22
2022-08-07T15:23:17.077Z,101129.44
2022-08-07T15:25:55.625Z,101135.16
2022-08-07T15:28:34.749Z,101118.00
2022-08-07T15:31:08.661Z,101130.94
2022-08-07T15:39:17.749Z,101140.72
2022-08-07T15:44:52.569Z,101155.28
2022-08-07T15:51:01.480Z,101160.69
2022-08-07T15:53:11.850Z,101151.25
2022-08-07T15:55:53.838Z,101148.19
2022-08-07T15:58:40.419Z,101155.34
2022-08-07T16:01:20.498Z,101146.25
2022-08-07T16:03:58.251Z,101145.47
2022-08-07T16:06:49.471Z,101144.78
2022-08-07T16:09:22.816Z,101146.75
2022-08-07T16:12:12.268Z,101148.47
2022-08-07T16:15:05.785Z,101152.47
2022-08-07T16:18:01.429Z,101148.09
2022-08-07T16:21:42.988Z,101153.25
2022-08-07T16:24:03.668Z,101148.97
2022-08-07T16:26:59.537Z,101158.84
2022-08-07T16:30:09.994Z,101155.34
2022-08-07T16:32:54.587Z,101156.91
2022-08-07T16:35:56.561Z,101161.28
2022-08-07T16:39:00.995Z,101169.41
2022-08-07T16:41:54.470Z,101167.38
2022-08-07T16:45:03.838Z,101167.69
2022-08-07T16:47:55.864Z,101171.94
2022-08-07T16:51:21.591Z,101179.88
2022-08-07T16:54:32.508Z,101181.00
2022-08-07T16:58:03.009Z,101192.84
2022-08-07T17:00:14.990Z,101185.84
2022-08-07T17:03:06.324Z,101187.00
2022-08-07T17:06:19.073Z,101191.69
2022-08-07T17:09:14.274Z,101195.59
2022-08-07T17:12:04.680Z,101201.44
2022-08-07T17:14:50.233Z,101203.06
2022-08-07T17:17:44.237Z,101204.22
2022-08-07T17:20:31.667Z,101197.75
2022-08-07T17:23:35.337Z,101202.66
2022-08-07T17:26:23.603Z,101209.88
2022-08-07T17:29:07.737Z,101198.56
2022-08-07T17:31:44.381Z,101210.91
2022-08-07T17:34:40.939Z,101209.97
2022-08-07T17:38:09.491Z,101218.44
2022-08-07T17:40:32.194Z,101221.03
2022-08-07T17:44:01.793Z,101227.69
2022-08-07T17:46:36.222Z,101228.22
2022-08-07T17:49:24.133Z,101230.25
2022-08-07T17:52:14.112Z,101234.69
2022-08-07T17:54:53.707Z,101224.22
2022-08-07T17:57:58.540Z,101237.72
2022-08-07T18:00:49.211Z,101236.31
2022-08-07T18:04:04.412Z,101220.81
2022-08-07T18:06:38.453Z,101232.78
2022-08-07T18:09:08.660Z,101224.09
2022-08-07T18:12:16.133Z,101242.84
2022-08-07T18:15:02.206Z,101239.00
2022-08-07T18:18:46.614Z,101248.03
2022-08-07T18:21:57.825Z,101231.53
2022-08-07T18:25:24.120Z,101243.03
2022-08-07T18:28:12.404Z,101247.06
2022-08-07T18:30:56.289Z,101245.56
2022-08-07T18:33:58.530Z,101244.28
2022-08-07T18:37:14.560Z,101241.53
2022-08-07T18:40:42.572Z,101240.91
2022-08-07T18:43:15.945Z,101248.31
2022-08-07T18:46:24.649Z,101244.59
2022-08-07T18:50:31.520Z,101240.06
2022-08-07T18:52:25.462Z,101245.38
2022-08-07T18:55:42.867Z,101243.59
2022-08-07T18:58:14.727Z,101237.78
2022-08-07T19:01:02.076Z,101235.19
2022-08-07T19:03:43.755Z,101243.56
2022-08-07T19:06:21.660Z,101238.72
2022-08-07T19:09:55.512Z,101245.97
2022-08-07T19:12:35.241Z,101236.44
2022-08-07T19:16:04.216Z,101239.31
2022-08-07T19:18:36.717Z,101240.56
2022-08-07T19:21:51.043Z,101243.13
2022-08-07T19:24:30.959Z,101252.97
2022-08-07T19:28:58.401Z,101257.28
2022-08-07T19:31:00.136Z,101260.47
2022-08-07T19:32:51.291Z,101255.75
2022-08-07T19:35:23.589Z,101258.97
2022-08-07T19:37:58.152Z,101263.28
2022-08-07T19:40:37.018Z,101255.50
2022-08-07T19:43:43.923Z,101260.59
2022-08-07T19:46:10.886Z,101256.78
2022-08-07T19:48:42.732Z,101254.81
2022-08-07T19:51:19.832Z,101254.41
2022-08-07T19:54:31.046Z,101258.72
2022-08-07T19:58:02.455Z,101260.28
2022-08-07T19:59:40.981Z,101263.47
2022-08-07T20:02:19.744Z,101262.75
2022-08-07T20:04:50.529Z,101261.22
2022-08-07T20:07:46.340Z,101265.19
2022-08-07T20:10:37.886Z,101266.75
2022-08-07T20:13:22.697Z,101264.44
2022-08-07T20:15:57.874Z,101265.13
2022-08-07T20:18:32.752Z,101264.75
2022-08-07T20:21:21.571Z,101264.38
2022-08-07T20:24:04.372Z,101277.63
2022-08-07T20:26:44.975Z,101279.16
2022-08-07T20:29:48.146Z,101276.59
2022-08-07T20:32:11.403Z,101267.19
2022-08-07T20:34:53.175Z,101275.59
2022-08-07T20:37:29.794Z,101269.69
2022-08-07T20:40:05.591Z,101277.50
2022-08-07T20:42:57.803Z,101274.84
2022-08-07T20:45:33.108Z,101274.41
2022-08-07T20:48:29.022Z,101270.75
2022-08-07T20:51:01.477Z,101267.00
2022-08-07T20:54:03.851Z,101264.97
2022-08-07T20:56:32.331Z,101265.22
2022-08-07T20:59:05.415Z,101266.66
2022-08-07T21:01:45.216Z,101266.44
2022-08-07T21:04:27.862Z,101267.84
2022-08-07T21:07:04.443Z,101269.84
2022-08-07T21:09:52.959Z,101265.28
2022-08-07T21:12:31.853Z,101262.41
2022-08-07T21:15:05.969Z,101268.97
2022-08-07T21:18:03.912Z,101274.50
2022-08-07T21:20:33.117Z,101267.50
2022-08-07T21:23:15.395Z,101283.69
2022-08-07T21:25:56.865Z,101266.84
2022-08-07T21:28:51.075Z,101281.31
2022-08-07T21:32:03.700Z,101281.09
2022-08-07T21:35:17.697Z,101273.19
2022-08-07T21:38:19.590Z,101275.94
2022-08-07T21:41:10.085Z,101281.91
2022-08-07T21:43:57.471Z,101280.59
2022-08-07T21:46:49.922Z,101271.38
2022-08-07T21:50:02.881Z,101275.72
2022-08-07T21:52:42.842Z,101277.41
2022-08-07T21:55:19.522Z,101274.47
2022-08-07T21:58:32.427Z,101282.44
2022-08-07T22:01:14.100Z,101291.75
2022-08-07T22:04:00.613Z,101288.53
2022-08-07T22:06:37.523Z,101274.94
2022-08-07T22:09:17.774Z,101278.25
2022-08-07T22:12:05.099Z,101286.75
2022-08-07T22:16:43.805Z,101284.06
2022-08-07T22:18:35.900Z,101293.44
2022-08-07T22:21:24.100Z,101294.59
2022-08-07T22:24:33.159Z,101285.69
2022-08-07T22:27:34.222Z,101290.06
2022-08-07T22:30:16.860Z,101280.34
2022-08-07T22:33:52.533Z,101293.97
2022-08-07T22:36:23.859Z,101292.63
2022-08-07T22:39:30.415Z,101288.84
2022-08-07T22:42:25.963Z,101287.03
2022-08-07T22:45:02.269Z,101272.41
2022-08-07T22:48:31.293Z,101290.88
2022-08-07T22:51:04.611Z,101283.31
2022-08-07T22:54:07.982Z,101290.97
2022-08-07T22:57:05.483Z,101291.84
2022-08-07T22:59:49.735Z,101285.63
2022-08-07T23:02:32.097Z,101290.59
2022-08-07T23:06:07.201Z,101288.44
2022-08-07T23:08:14.760Z,101301.34
2022-08-07T23:11:12.883Z,101288.84
2022-08-07T23:14:10.775Z,101289.72
2022-08-07T23:17:04.033Z,101284.84
2022-08-07T23:20:21.561Z,101290.63
2022-08-07T23:24:05.177Z,101289.28
2022-08-07T23:27:07.887Z,101289.66
2022-08-07T23:30:37.497Z,101292.69
2022-08-07T23:34:23.883Z,101294.41
2022-08-07T23:37:17.940Z,101291.19
2022-08-07T23:39:59.046Z,101299.94
2022-08-07T23:42:39.923Z,101294.00
2022-08-07T23:45:33.390Z,101300.56
2022-08-07T23:49:00.616Z,101301.69
2022-08-07T23:53:01.774Z,101310.16
2022-08-07T23:54:44.607Z,101308.81
2022-08-07T23:57:37.242Z,101305.81
